createdAt,value
2023-03-31T00:00:29.567Z,2.85
2023-03-31T00:01:33.972Z,3.80
2023-03-31T00:02:37.298Z,3.83
2023-03-31T00:03:43.762Z,3.58
2023-03-31T00:04:52.756Z,2.83
2023-03-31T00:06:01.060Z,3.03
2023-03-31T00:07:06.040Z,3.08
2023-03-31T00:08:09.291Z,6.13
2023-03-31T00:09:14.037Z,6.40
2023-03-31T00:10:19.295Z,6.15
2023-03-31T00:11:23.494Z,4.00
2023-03-31T00:12:25.423Z,4.45
2023-03-31T00:13:28.452Z,4.22
2023-03-31T00:14:30.365Z,4.22
2023-03-31T00:15:33.386Z,6.78
2023-03-31T00:16:36.448Z,8.27
2023-03-31T00:17:39.960Z,3.78
2023-03-31T00:18:47.227Z,3.60
2023-03-31T00:19:50.282Z,4.95
2023-03-31T00:20:53.897Z,6.97
2023-03-31T00:22:02.040Z,6.40
2023-03-31T00:23:06.481Z,2.63
2023-03-31T00:24:11.516Z,3.35
2023-03-31T00:25:13.751Z,5.88
2023-03-31T00:26:16.684Z,7.78
2023-03-31T00:27:18.659Z,4.78
2023-03-31T00:28:21.652Z,6.22
2023-03-31T00:29:23.567Z,3.55
2023-03-31T00:30:26.466Z,7.85
2023-03-31T00:31:28.707Z,2.55
2023-03-31T00:32:33.271Z,3.00
2023-03-31T00:33:35.569Z,5.97
2023-03-31T00:34:38.699Z,3.45
2023-03-31T00:35:40.666Z,4.47
2023-03-31T00:36:47.611Z,2.55
2023-03-31T00:37:51.119Z,5.88
2023-03-31T00:38:54.322Z,2.67
2023-03-31T00:39:56.763Z,4.57
2023-03-31T00:41:00.231Z,3.25
2023-03-31T00:42:02.774Z,2.70
2023-03-31T00:43:27.389Z,4.47
2023-03-31T00:44:34.251Z,4.60
2023-03-31T00:45:36.530Z,2.70
2023-03-31T00:46:44.457Z,2.70
2023-03-31T00:47:49.127Z,2.80
2023-03-31T00:48:57.549Z,3.08
2023-03-31T00:50:00.568Z,2.85
2023-03-31T00:51:05.942Z,4.53
2023-03-31T00:52:13.420Z,8.57
2023-03-31T00:53:21.729Z,2.75
2023-03-31T00:54:27.566Z,3.33
2023-03-31T00:55:34.795Z,5.80
2023-03-31T00:56:42.765Z,3.45
2023-03-31T00:57:46.820Z,5.72
2023-03-31T00:58:50.187Z,3.85
2023-03-31T00:59:57.402Z,4.00
2023-03-31T01:01:03.357Z,5.70
2023-03-31T01:02:06.065Z,4.65
2023-03-31T01:03:10.122Z,5.43
2023-03-31T01:04:14.853Z,2.75
2023-03-31T01:05:18.896Z,9.15
2023-03-31T01:06:20.903Z,2.80
2023-03-31T01:07:29.636Z,3.25
2023-03-31T01:08:36.541Z,3.97
2023-03-31T01:09:42.044Z,5.25
2023-03-31T01:10:48.139Z,5.22
2023-03-31T01:11:51.112Z,2.50
2023-03-31T01:12:55.636Z,3.70
2023-03-31T01:13:59.050Z,3.65
2023-03-31T01:15:03.381Z,5.43
2023-03-31T01:16:06.800Z,3.63
2023-03-31T01:17:10.215Z,3.15
2023-03-31T01:18:16.514Z,5.25
2023-03-31T01:19:33.260Z,5.47
2023-03-31T01:20:50.889Z,2.75
2023-03-31T01:22:28.759Z,4.55
2023-03-31T01:24:05.494Z,6.75
2023-03-31T01:25:56.539Z,4.40
2023-03-31T01:27:34.896Z,2.92
2023-03-31T01:28:41.379Z,6.10
2023-03-31T01:30:12.027Z,2.15
2023-03-31T01:31:36.274Z,14.02
2023-03-31T01:33:01.902Z,2.55
2023-03-31T01:34:35.550Z,8.50
2023-03-31T01:35:58.382Z,6.85
2023-03-31T01:37:43.297Z,2.47
2023-03-31T01:39:17.744Z,6.78
2023-03-31T01:40:39.287Z,2.30
2023-03-31T01:41:53.465Z,6.00
2023-03-31T01:43:00.044Z,3.30
2023-03-31T01:44:09.041Z,4.32
2023-03-31T01:45:22.598Z,3.05
2023-03-31T01:46:29.367Z,2.60
2023-03-31T01:47:40.296Z,3.80
2023-03-31T01:48:50.686Z,3.90
2023-03-31T01:49:59.233Z,3.47
2023-03-31T01:51:06.662Z,2.70
2023-03-31T01:52:18.428Z,2.30
2023-03-31T01:53:27.356Z,3.10
2023-03-31T01:54:39.334Z,4.05
2023-03-31T01:55:49.385Z,5.10
2023-03-31T01:56:58.223Z,6.35
2023-03-31T01:58:04.564Z,2.70
2023-03-31T01:59:12.948Z,3.67
2023-03-31T02:00:17.088Z,2.55
2023-03-31T02:01:26.390Z,3.17
2023-03-31T02:02:32.375Z,2.78
2023-03-31T02:03:40.458Z,2.80
2023-03-31T02:04:46.545Z,4.82
2023-03-31T02:05:54.066Z,3.35
2023-03-31T02:07:03.600Z,3.92
2023-03-31T02:08:10.504Z,3.47
2023-03-31T02:09:16.440Z,12.93
2023-03-31T02:10:21.366Z,3.20
2023-03-31T02:11:25.676Z,4.00
2023-03-31T02:12:32.395Z,3.45
2023-03-31T02:13:37.255Z,5.85
2023-03-31T02:14:46.114Z,5.10
2023-03-31T02:15:52.164Z,4.30
2023-03-31T02:16:58.845Z,9.38
2023-03-31T02:18:06.169Z,2.65
2023-03-31T02:19:14.009Z,3.75
2023-03-31T02:20:21.186Z,2.85
2023-03-31T02:21:23.349Z,5.32
2023-03-31T02:22:28.557Z,2.65
2023-03-31T02:23:32.490Z,2.92
2023-03-31T02:24:37.795Z,3.53
2023-03-31T02:25:47.496Z,3.20
2023-03-31T02:26:56.401Z,3.88
2023-03-31T02:28:01.953Z,6.18
2023-03-31T02:29:05.103Z,7.75
2023-03-31T02:30:08.896Z,4.10
2023-03-31T02:31:24.861Z,8.80
2023-03-31T02:32:33.633Z,6.53
2023-03-31T02:33:36.830Z,4.50
2023-03-31T02:34:38.811Z,2.60
2023-03-31T02:35:41.735Z,3.90
2023-03-31T02:36:46.446Z,2.50
2023-03-31T02:37:49.705Z,2.92
2023-03-31T02:38:56.394Z,2.60
2023-03-31T02:40:01.510Z,2.80
2023-03-31T02:41:04.609Z,5.82
2023-03-31T02:42:08.398Z,3.40
2023-03-31T02:43:11.787Z,8.80
2023-03-31T02:44:14.193Z,2.92
2023-03-31T02:45:43.641Z,2.80
2023-03-31T02:46:47.643Z,2.80
2023-03-31T02:47:49.616Z,3.38
2023-03-31T02:48:55.983Z,4.75
2023-03-31T02:50:00.287Z,3.08
2023-03-31T02:51:23.276Z,5.25
2023-03-31T02:52:46.531Z,6.35
2023-03-31T02:53:59.998Z,8.93
2023-03-31T02:55:21.086Z,3.00
2023-03-31T02:56:39.887Z,4.10
2023-03-31T02:58:12.484Z,6.85
2023-03-31T02:59:30.670Z,7.03
2023-03-31T03:00:54.129Z,4.10
2023-03-31T03:02:13.192Z,3.25
2023-03-31T03:03:30.461Z,3.65
2023-03-31T03:04:49.713Z,5.63
2023-03-31T03:06:05.231Z,4.03
2023-03-31T03:07:15.322Z,4.15
2023-03-31T03:08:27.102Z,4.38
2023-03-31T03:09:42.119Z,4.82
2023-03-31T03:10:57.891Z,9.27
2023-03-31T03:12:10.330Z,7.03
2023-03-31T03:13:21.149Z,5.03
2023-03-31T03:14:32.538Z,4.78
2023-03-31T03:15:37.645Z,4.88
2023-03-31T03:16:44.719Z,4.28
2023-03-31T03:17:48.355Z,4.35
2023-03-31T03:18:58.324Z,4.30
2023-03-31T03:20:07.594Z,5.47
2023-03-31T03:21:10.588Z,4.47
2023-03-31T03:22:12.506Z,5.95
2023-03-31T03:23:15.681Z,2.95
2023-03-31T03:24:18.486Z,5.85
2023-03-31T03:25:21.750Z,4.65
2023-03-31T03:26:24.139Z,3.10
2023-03-31T03:27:27.088Z,3.70
2023-03-31T03:28:30.369Z,4.70
2023-03-31T03:29:33.276Z,4.03
2023-03-31T03:30:35.577Z,3.38
2023-03-31T03:31:38.578Z,4.32
2023-03-31T03:32:41.639Z,3.83
2023-03-31T03:33:44.658Z,5.07
2023-03-31T03:34:46.609Z,5.50
2023-03-31T03:35:49.504Z,4.55
2023-03-31T03:36:52.918Z,4.30
2023-03-31T03:37:54.874Z,4.95
2023-03-31T03:38:57.779Z,4.47
2023-03-31T03:40:00.450Z,7.75
2023-03-31T03:41:03.400Z,5.22
2023-03-31T03:42:05.837Z,3.58
2023-03-31T03:43:08.964Z,6.25
2023-03-31T03:44:12.436Z,4.60
2023-03-31T03:45:15.449Z,4.80
2023-03-31T03:46:17.441Z,8.27
2023-03-31T03:47:20.384Z,3.95
2023-03-31T03:48:22.312Z,5.35
2023-03-31T03:49:25.271Z,5.30
2023-03-31T03:50:28.232Z,4.13
2023-03-31T03:51:30.504Z,3.78
2023-03-31T03:52:33.422Z,4.82
2023-03-31T03:53:35.688Z,3.65
2023-03-31T03:54:38.636Z,4.13
2023-03-31T03:55:40.900Z,6.75
2023-03-31T03:56:43.937Z,10.63
2023-03-31T03:57:46.083Z,6.85
2023-03-31T03:58:49.110Z,11.50
2023-03-31T03:59:52.361Z,7.20
2023-03-31T04:00:56.902Z,5.97
2023-03-31T04:01:58.984Z,7.53
2023-03-31T04:03:02.589Z,5.35
2023-03-31T04:04:04.904Z,10.30
2023-03-31T04:05:08.276Z,5.60
2023-03-31T04:06:10.546Z,6.28
2023-03-31T04:07:13.512Z,8.45
2023-03-31T04:08:15.510Z,3.95
2023-03-31T04:09:18.458Z,9.25
2023-03-31T04:10:22.233Z,11.07
2023-03-31T04:11:24.437Z,6.25
2023-03-31T04:12:27.463Z,3.20
2023-03-31T04:13:29.498Z,3.95
2023-03-31T04:14:32.466Z,5.05
2023-03-31T04:15:35.957Z,5.28
2023-03-31T04:16:40.545Z,5.53
2023-03-31T04:17:48.730Z,7.80
2023-03-31T04:18:52.852Z,8.45
2023-03-31T04:19:54.743Z,5.05
2023-03-31T04:21:04.979Z,5.57
2023-03-31T04:22:11.634Z,6.75
2023-03-31T04:23:15.580Z,4.85
2023-03-31T04:24:21.687Z,7.65
2023-03-31T04:25:25.115Z,5.28
2023-03-31T04:26:31.498Z,3.83
2023-03-31T04:27:35.045Z,5.05
2023-03-31T04:28:38.029Z,6.55
2023-03-31T04:29:42.723Z,6.18
2023-03-31T04:30:46.441Z,5.22
2023-03-31T04:31:52.653Z,4.10
2023-03-31T04:32:57.667Z,8.75
2023-03-31T04:34:02.515Z,3.78
2023-03-31T04:35:06.644Z,4.30
2023-03-31T04:36:17.599Z,4.90
2023-03-31T04:37:20.605Z,4.53
2023-03-31T04:38:24.190Z,4.25
2023-03-31T04:39:30.647Z,9.20
2023-03-31T04:40:32.658Z,5.00
2023-03-31T04:41:35.862Z,6.65
2023-03-31T04:42:37.813Z,10.40
2023-03-31T04:43:40.891Z,17.70
2023-03-31T04:44:43.133Z,8.85
2023-03-31T04:45:47.862Z,10.60
2023-03-31T04:46:49.915Z,7.25
2023-03-31T04:47:52.980Z,6.60
2023-03-31T04:48:56.210Z,6.80
2023-03-31T04:49:58.135Z,6.85
2023-03-31T04:51:01.150Z,17.83
2023-03-31T04:52:03.383Z,16.88
2023-03-31T04:53:06.761Z,12.45
2023-03-31T04:54:08.793Z,12.23
2023-03-31T04:55:11.846Z,24.02
2023-03-31T04:56:13.798Z,15.10
2023-03-31T04:57:16.768Z,15.88
2023-03-31T04:58:18.894Z,13.32
2023-03-31T04:59:21.819Z,7.78
2023-03-31T05:00:24.059Z,19.42
2023-03-31T05:01:28.393Z,16.77
2023-03-31T05:02:31.468Z,6.93
2023-03-31T05:03:34.036Z,10.73
2023-03-31T05:04:37.662Z,13.13
2023-03-31T05:05:39.963Z,7.35
2023-03-31T05:06:43.173Z,8.63
2023-03-31T05:07:46.159Z,7.32
2023-03-31T05:08:49.065Z,13.23
2023-03-31T05:09:51.022Z,6.95
2023-03-31T05:10:54.100Z,9.02
2023-03-31T05:11:57.053Z,3.85
2023-03-31T05:13:00.021Z,7.22
2023-03-31T05:14:02.262Z,9.60
2023-03-31T05:15:06.061Z,9.88
2023-03-31T05:16:09.323Z,12.18
2023-03-31T05:17:13.841Z,8.70
2023-03-31T05:18:15.770Z,5.82
2023-03-31T05:19:19.004Z,5.63
2023-03-31T05:20:21.524Z,12.75
2023-03-31T05:21:26.801Z,6.15
2023-03-31T05:22:28.727Z,4.50
2023-03-31T05:23:32.462Z,7.10
2023-03-31T05:24:34.577Z,12.13
2023-03-31T05:25:37.523Z,6.78
2023-03-31T05:26:41.044Z,4.55
2023-03-31T05:27:44.284Z,7.80
2023-03-31T05:28:46.738Z,4.97
2023-03-31T05:29:49.626Z,4.25
2023-03-31T05:30:51.563Z,7.38
2023-03-31T05:31:54.825Z,4.40
2023-03-31T05:32:58.193Z,5.40
2023-03-31T05:34:01.176Z,5.25
2023-03-31T05:35:03.713Z,5.97
2023-03-31T05:36:07.649Z,5.40
2023-03-31T05:37:09.879Z,5.22
2023-03-31T05:38:12.884Z,5.78
2023-03-31T05:39:14.873Z,10.30
2023-03-31T05:40:18.340Z,5.90
2023-03-31T05:41:20.342Z,9.63
2023-03-31T05:42:24.454Z,5.72
2023-03-31T05:43:27.480Z,7.07
2023-03-31T05:44:29.797Z,11.10
2023-03-31T05:45:35.949Z,8.45
2023-03-31T05:46:39.250Z,8.98
2023-03-31T05:47:41.258Z,8.35
2023-03-31T05:48:45.988Z,8.48
2023-03-31T05:49:48.242Z,7.22
2023-03-31T05:50:51.170Z,8.80
2023-03-31T05:51:53.332Z,6.20
2023-03-31T05:52:56.279Z,7.85
2023-03-31T05:53:58.405Z,6.25
2023-03-31T05:55:01.392Z,8.00
2023-03-31T05:56:08.116Z,7.95
2023-03-31T05:57:10.565Z,14.25
2023-03-31T05:58:13.586Z,5.07
2023-03-31T05:59:16.344Z,5.97
2023-03-31T06:00:21.553Z,4.10
2023-03-31T06:01:24.974Z,8.02
2023-03-31T06:02:27.052Z,5.18
2023-03-31T06:03:30.273Z,7.68
2023-03-31T06:04:33.698Z,5.65
2023-03-31T06:05:36.764Z,8.35
2023-03-31T06:06:38.990Z,11.15
2023-03-31T06:07:41.924Z,11.25
2023-03-31T06:08:47.234Z,7.55
2023-03-31T06:09:50.469Z,9.70
2023-03-31T06:10:52.428Z,14.18
2023-03-31T06:11:55.394Z,11.50
2023-03-31T06:12:57.532Z,8.20
2023-03-31T06:14:00.460Z,10.85
2023-03-31T06:15:02.663Z,10.20
2023-03-31T06:16:06.238Z,6.72
2023-03-31T06:17:09.248Z,5.68
2023-03-31T06:18:11.574Z,7.07
2023-03-31T06:19:14.672Z,11.95
2023-03-31T06:20:30.099Z,10.77
2023-03-31T06:21:33.447Z,9.98
2023-03-31T06:22:35.568Z,8.45
2023-03-31T06:23:38.975Z,11.52
2023-03-31T06:24:40.963Z,8.93
2023-03-31T06:25:50.833Z,12.10
2023-03-31T06:26:54.155Z,10.18
2023-03-31T06:27:56.121Z,12.55
2023-03-31T06:28:59.022Z,9.10
2023-03-31T06:30:01.104Z,16.73
2023-03-31T06:31:05.541Z,7.88
2023-03-31T06:32:09.230Z,11.77
2023-03-31T06:33:11.744Z,11.20
2023-03-31T06:34:14.697Z,7.85
2023-03-31T06:35:18.047Z,5.97
2023-03-31T06:36:22.311Z,21.35
2023-03-31T06:37:24.636Z,19.38
2023-03-31T06:38:27.745Z,12.50
2023-03-31T06:39:29.716Z,11.57
2023-03-31T06:40:33.056Z,10.48
2023-03-31T06:41:35.987Z,12.95
2023-03-31T06:42:37.894Z,17.13
2023-03-31T06:43:41.067Z,14.32
2023-03-31T06:44:43.032Z,16.42
2023-03-31T06:45:45.975Z,8.43
2023-03-31T06:46:48.044Z,16.35
2023-03-31T06:47:51.225Z,8.63
2023-03-31T06:48:54.356Z,10.35
2023-03-31T06:49:56.312Z,12.18
2023-03-31T06:51:03.335Z,8.65
2023-03-31T06:52:06.592Z,26.83
2023-03-31T06:53:08.752Z,14.55
2023-03-31T06:54:11.640Z,28.48
2023-03-31T06:55:15.954Z,45.50
2023-03-31T06:56:18.956Z,43.97
2023-03-31T06:57:21.337Z,30.52
2023-03-31T06:58:24.863Z,15.82
2023-03-31T06:59:27.813Z,14.00
2023-03-31T07:00:29.817Z,13.30
2023-03-31T07:01:37.316Z,10.00
2023-03-31T07:02:40.845Z,8.20
2023-03-31T07:03:44.117Z,13.60
2023-03-31T07:04:46.564Z,11.57
2023-03-31T07:05:51.090Z,15.55
2023-03-31T07:06:54.402Z,14.50
2023-03-31T07:07:58.587Z,13.93
2023-03-31T07:09:00.554Z,11.40
2023-03-31T07:10:03.833Z,10.05
2023-03-31T07:11:06.236Z,9.77
2023-03-31T07:12:10.371Z,11.77
2023-03-31T07:13:12.288Z,10.23
2023-03-31T07:14:15.292Z,12.80
2023-03-31T07:15:17.293Z,9.65
2023-03-31T07:16:20.811Z,12.13
2023-03-31T07:17:25.389Z,10.90
2023-03-31T07:18:35.124Z,14.38
2023-03-31T07:19:41.788Z,12.65
2023-03-31T07:20:44.307Z,10.75
2023-03-31T07:21:47.256Z,15.88
2023-03-31T07:22:50.757Z,10.52
2023-03-31T07:23:53.876Z,14.98
2023-03-31T07:24:56.009Z,13.02
2023-03-31T07:26:02.378Z,12.65
2023-03-31T07:27:05.326Z,13.45
2023-03-31T07:28:07.393Z,11.35
2023-03-31T07:29:10.333Z,10.57
2023-03-31T07:30:15.512Z,10.90
2023-03-31T07:31:18.570Z,12.07
2023-03-31T07:32:22.247Z,9.18
2023-03-31T07:33:25.507Z,12.90
2023-03-31T07:34:27.700Z,9.57
2023-03-31T07:35:31.514Z,7.40
2023-03-31T07:36:33.691Z,17.55
2023-03-31T07:37:36.995Z,12.43
2023-03-31T07:38:42.057Z,8.77
2023-03-31T07:39:43.979Z,10.02
2023-03-31T07:40:55.691Z,11.48
2023-03-31T07:42:06.184Z,10.35
2023-03-31T07:43:09.163Z,10.52
2023-03-31T07:44:12.162Z,12.82
2023-03-31T07:45:14.498Z,12.48
2023-03-31T07:46:21.318Z,12.25
2023-03-31T07:47:24.112Z,11.88
2023-03-31T07:48:28.712Z,14.00
2023-03-31T07:49:31.863Z,11.60
2023-03-31T07:50:34.773Z,14.38
2023-03-31T07:51:36.681Z,11.27
2023-03-31T07:52:41.169Z,14.05
2023-03-31T07:53:45.901Z,14.55
2023-03-31T07:54:47.856Z,17.83
2023-03-31T07:55:50.967Z,10.98
2023-03-31T07:56:54.127Z,11.43
2023-03-31T07:57:57.878Z,11.35
2023-03-31T07:59:00.862Z,12.35
2023-03-31T08:00:07.191Z,9.25
2023-03-31T08:01:12.243Z,10.88
2023-03-31T08:02:16.504Z,15.35
2023-03-31T08:03:19.630Z,12.85
2023-03-31T08:04:22.674Z,17.13
2023-03-31T08:05:25.596Z,17.98
2023-03-31T08:06:29.102Z,12.50
2023-03-31T08:07:33.840Z,14.30
2023-03-31T08:08:38.488Z,13.57
2023-03-31T08:09:44.120Z,9.95
2023-03-31T08:10:47.315Z,14.00
2023-03-31T08:11:49.575Z,15.23
2023-03-31T08:12:53.013Z,9.75
2023-03-31T08:13:55.922Z,12.85
2023-03-31T08:14:57.847Z,11.15
2023-03-31T08:16:00.908Z,15.02
2023-03-31T08:17:03.692Z,9.50
2023-03-31T08:18:07.164Z,8.35
2023-03-31T08:19:09.346Z,16.73
2023-03-31T08:20:13.295Z,13.80
2023-03-31T08:21:15.386Z,16.15
2023-03-31T08:22:18.376Z,13.00
2023-03-31T08:23:21.335Z,11.63
2023-03-31T08:24:24.418Z,15.23
2023-03-31T08:25:28.822Z,11.90
2023-03-31T08:26:32.968Z,15.43
2023-03-31T08:27:35.689Z,16.42
2023-03-31T08:28:38.613Z,15.90
2023-03-31T08:29:40.596Z,14.32
2023-03-31T08:30:43.618Z,10.82
2023-03-31T08:31:45.803Z,11.40
2023-03-31T08:32:48.751Z,13.27
2023-03-31T08:33:51.110Z,10.20
2023-03-31T08:34:54.006Z,11.63
2023-03-31T08:35:56.062Z,9.13
2023-03-31T08:36:59.042Z,12.60
2023-03-31T08:38:01.603Z,13.10
2023-03-31T08:39:06.359Z,7.43
2023-03-31T08:40:15.664Z,10.68
2023-03-31T08:41:32.222Z,13.00
2023-03-31T08:42:39.959Z,9.70
2023-03-31T08:43:45.588Z,16.45
2023-03-31T08:44:58.500Z,14.35
2023-03-31T08:46:03.184Z,9.50
2023-03-31T08:47:11.905Z,11.05
2023-03-31T08:48:26.078Z,8.65
2023-03-31T08:49:32.224Z,9.32
2023-03-31T08:50:38.056Z,9.10
2023-03-31T08:51:44.132Z,11.32
2023-03-31T08:52:51.243Z,11.95
2023-03-31T08:53:59.426Z,10.65
2023-03-31T08:55:05.398Z,9.23
2023-03-31T08:56:15.007Z,8.85
2023-03-31T08:57:22.559Z,12.05
2023-03-31T08:58:35.118Z,9.30
2023-03-31T08:59:41.012Z,9.50
2023-03-31T09:00:51.156Z,8.55
2023-03-31T09:02:01.899Z,7.88
2023-03-31T09:03:11.486Z,10.23
2023-03-31T09:04:28.439Z,8.77
2023-03-31T09:06:00.237Z,12.95
2023-03-31T09:07:13.552Z,8.43
2023-03-31T09:08:34.514Z,8.80
2023-03-31T09:09:48.611Z,7.25
2023-03-31T09:10:56.369Z,9.38
2023-03-31T09:12:07.507Z,8.02
2023-03-31T09:13:29.361Z,8.65
2023-03-31T09:14:37.152Z,18.83
2023-03-31T09:15:43.212Z,9.35
2023-03-31T09:16:54.762Z,6.95
2023-03-31T09:18:04.694Z,7.65
2023-03-31T09:19:15.702Z,8.25
2023-03-31T09:20:23.009Z,9.00
2023-03-31T09:21:29.660Z,7.10
2023-03-31T09:22:35.885Z,8.50
2023-03-31T09:23:43.483Z,7.75
2023-03-31T09:24:56.024Z,8.90
2023-03-31T09:25:59.655Z,9.15
2023-03-31T09:27:06.492Z,7.18
2023-03-31T09:28:20.763Z,6.93
2023-03-31T09:29:29.546Z,8.80
2023-03-31T09:30:35.463Z,9.70
2023-03-31T09:31:39.095Z,11.05
2023-03-31T09:32:42.462Z,11.25
2023-03-31T09:33:46.444Z,8.35
2023-03-31T09:34:53.984Z,9.05
2023-03-31T09:35:57.766Z,6.88
2023-03-31T09:37:00.814Z,7.38
2023-03-31T09:38:02.818Z,8.02
2023-03-31T09:39:06.471Z,7.65
2023-03-31T09:40:17.754Z,7.28
2023-03-31T09:41:20.564Z,9.93
2023-03-31T09:42:23.491Z,8.52
2023-03-31T09:43:28.483Z,7.82
2023-03-31T09:44:39.317Z,10.43
2023-03-31T09:45:41.724Z,7.60
2023-03-31T09:46:44.834Z,9.45
2023-03-31T09:47:52.082Z,10.63
2023-03-31T09:49:00.584Z,8.00
2023-03-31T09:50:03.943Z,10.27
2023-03-31T09:51:07.816Z,7.82
2023-03-31T09:52:20.759Z,20.45
2023-03-31T09:53:30.494Z,52.22
2023-03-31T09:54:39.495Z,40.05
2023-03-31T09:55:45.005Z,16.08
2023-03-31T09:56:53.541Z,7.68
2023-03-31T09:57:56.872Z,7.55
2023-03-31T09:59:03.292Z,6.13
2023-03-31T10:00:16.436Z,9.30
2023-03-31T10:01:18.779Z,10.50
2023-03-31T10:02:41.492Z,8.25
2023-03-31T10:03:50.250Z,11.57
2023-03-31T10:04:53.781Z,14.18
2023-03-31T10:05:58.944Z,13.82
2023-03-31T10:07:03.912Z,9.35
2023-03-31T10:08:24.078Z,9.50
2023-03-31T10:09:29.536Z,10.68
2023-03-31T10:10:34.611Z,16.20
2023-03-31T10:11:38.619Z,9.57
2023-03-31T10:12:41.734Z,17.38
2023-03-31T10:13:47.614Z,11.63
2023-03-31T10:14:55.364Z,9.93
2023-03-31T10:16:05.077Z,12.15
2023-03-31T10:17:08.376Z,6.68
2023-03-31T10:18:14.409Z,7.10
2023-03-31T10:19:22.717Z,8.15
2023-03-31T10:20:34.259Z,5.72
2023-03-31T10:21:39.226Z,9.30
2023-03-31T10:22:46.466Z,7.70
2023-03-31T10:23:51.135Z,17.45
2023-03-31T10:24:54.825Z,8.80
2023-03-31T10:25:57.240Z,7.63
2023-03-31T10:27:00.526Z,6.53
2023-03-31T10:28:03.314Z,8.63
2023-03-31T10:29:12.680Z,7.13
2023-03-31T10:30:23.915Z,7.70
2023-03-31T10:31:34.933Z,7.32
2023-03-31T10:32:42.972Z,5.15
2023-03-31T10:33:47.905Z,7.05
2023-03-31T10:34:55.220Z,10.13
2023-03-31T10:36:00.303Z,8.50
2023-03-31T10:37:04.883Z,4.13
2023-03-31T10:38:12.876Z,5.13
2023-03-31T10:39:17.426Z,5.22
2023-03-31T10:40:22.965Z,4.97
2023-03-31T10:41:29.053Z,5.10
2023-03-31T10:42:31.387Z,7.10
2023-03-31T10:43:41.382Z,6.20
2023-03-31T10:44:44.315Z,4.13
2023-03-31T10:45:50.283Z,9.77
2023-03-31T10:46:53.965Z,7.10
2023-03-31T10:47:57.449Z,4.50
2023-03-31T10:49:01.213Z,4.88
2023-03-31T10:50:05.548Z,5.97
2023-03-31T10:51:15.856Z,12.88
2023-03-31T10:52:20.680Z,6.43
2023-03-31T10:53:23.600Z,4.63
2023-03-31T10:54:26.986Z,5.15
2023-03-31T10:55:36.274Z,7.30
2023-03-31T10:56:43.345Z,4.28
2023-03-31T10:57:54.532Z,3.13
2023-03-31T10:59:10.661Z,6.82
2023-03-31T11:00:25.199Z,3.60
2023-03-31T11:01:37.694Z,4.00
2023-03-31T11:03:04.094Z,4.50
2023-03-31T11:04:28.682Z,3.85
2023-03-31T11:05:36.577Z,5.90
2023-03-31T11:06:52.555Z,3.50
2023-03-31T11:08:03.074Z,4.60
2023-03-31T11:09:17.211Z,4.32
2023-03-31T11:10:41.858Z,4.32
2023-03-31T11:11:57.698Z,6.97
2023-03-31T11:13:08.951Z,3.47
2023-03-31T11:14:17.482Z,3.60
2023-03-31T11:15:26.560Z,7.65
2023-03-31T11:16:37.877Z,5.10
2023-03-31T11:17:54.668Z,3.55
2023-03-31T11:19:21.445Z,3.35
2023-03-31T11:20:31.839Z,4.03
2023-03-31T11:21:48.224Z,2.95
2023-03-31T11:22:57.379Z,5.43
2023-03-31T11:24:10.991Z,3.35
2023-03-31T11:25:21.144Z,7.32
2023-03-31T11:26:31.285Z,5.10
2023-03-31T11:27:52.037Z,2.90
2023-03-31T11:29:04.814Z,3.33
2023-03-31T11:30:15.794Z,10.60
2023-03-31T11:31:29.514Z,6.47
2023-03-31T11:32:48.688Z,7.22
2023-03-31T11:34:07.315Z,3.88
2023-03-31T11:35:29.196Z,3.28
2023-03-31T11:36:51.818Z,15.27
2023-03-31T11:38:04.528Z,5.32
2023-03-31T11:39:22.302Z,1.92
2023-03-31T11:40:50.198Z,4.20
2023-03-31T11:41:56.028Z,3.38
2023-03-31T11:43:03.289Z,3.45
2023-03-31T11:44:10.683Z,6.88
2023-03-31T11:45:18.466Z,3.90
2023-03-31T11:46:25.777Z,3.15
2023-03-31T11:47:33.590Z,2.20
2023-03-31T11:48:47.417Z,2.55
2023-03-31T11:49:54.677Z,3.03
2023-03-31T11:50:59.179Z,3.75
2023-03-31T11:52:07.272Z,4.10
2023-03-31T11:53:18.093Z,3.60
2023-03-31T11:54:29.136Z,1.80
2023-03-31T11:55:32.430Z,3.15
2023-03-31T11:56:39.126Z,4.72
2023-03-31T11:57:47.174Z,2.22
2023-03-31T11:58:56.380Z,1.90
2023-03-31T12:00:07.823Z,3.25
2023-03-31T12:01:18.802Z,5.30
2023-03-31T12:02:31.398Z,5.03
2023-03-31T12:03:40.014Z,4.50
2023-03-31T12:04:47.134Z,2.65
2023-03-31T12:05:52.969Z,1.30
2023-03-31T12:07:02.677Z,2.47
2023-03-31T12:08:10.714Z,2.80
2023-03-31T12:09:20.801Z,1.75
2023-03-31T12:10:30.932Z,1.88
2023-03-31T12:11:39.484Z,3.25
2023-03-31T12:12:47.541Z,3.25
2023-03-31T12:13:54.400Z,3.40
2023-03-31T12:15:02.574Z,2.50
2023-03-31T12:16:12.582Z,3.13
2023-03-31T12:17:17.047Z,5.85
2023-03-31T12:18:23.791Z,5.28
2023-03-31T12:19:29.048Z,2.88
2023-03-31T12:20:38.265Z,3.83
2023-03-31T12:21:48.318Z,1.85
2023-03-31T12:22:51.463Z,1.98
2023-03-31T12:23:54.447Z,2.40
2023-03-31T12:24:57.421Z,2.15
2023-03-31T12:26:08.118Z,3.38
2023-03-31T12:27:17.069Z,3.63
2023-03-31T12:28:21.570Z,2.28
2023-03-31T12:29:29.976Z,6.68
2023-03-31T12:30:37.489Z,1.80
2023-03-31T12:31:43.974Z,1.33
2023-03-31T12:32:49.892Z,2.85
2023-03-31T12:33:58.710Z,1.15
2023-03-31T12:35:05.988Z,1.00
2023-03-31T12:36:24.220Z,2.78
2023-03-31T12:37:57.073Z,1.55
2023-03-31T12:39:14.376Z,1.13
2023-03-31T12:40:25.104Z,1.40
2023-03-31T12:41:38.614Z,1.40
2023-03-31T12:43:04.354Z,1.48
2023-03-31T12:44:17.871Z,2.13
2023-03-31T12:45:28.134Z,1.58
2023-03-31T12:46:57.830Z,2.15
2023-03-31T12:48:12.814Z,2.42
2023-03-31T12:49:25.832Z,1.85
2023-03-31T12:50:51.457Z,3.38
2023-03-31T12:52:02.436Z,3.25
2023-03-31T12:53:16.179Z,2.95
2023-03-31T12:54:36.311Z,1.48
2023-03-31T12:55:40.596Z,1.88
2023-03-31T12:57:17.348Z,1.73
2023-03-31T12:58:45.408Z,1.15
2023-03-31T13:00:25.527Z,3.20
2023-03-31T13:01:28.591Z,1.10
2023-03-31T13:02:31.428Z,3.58
2023-03-31T13:03:42.663Z,1.02
2023-03-31T13:04:46.261Z,1.90
2023-03-31T13:05:48.246Z,2.85
2023-03-31T13:06:56.841Z,2.75
2023-03-31T13:08:00.288Z,6.28
2023-03-31T13:09:08.356Z,2.28
2023-03-31T13:10:31.640Z,1.40
2023-03-31T13:11:39.489Z,5.40
2023-03-31T13:12:42.497Z,5.20
2023-03-31T13:14:00.370Z,3.25
2023-03-31T13:15:06.570Z,3.33
2023-03-31T13:16:08.615Z,1.45
2023-03-31T13:17:23.034Z,2.63
2023-03-31T13:18:26.502Z,6.20
2023-03-31T13:19:31.947Z,1.10
2023-03-31T13:20:37.881Z,4.70
2023-03-31T13:21:56.455Z,2.75
2023-03-31T13:23:06.423Z,1.98
2023-03-31T13:24:09.401Z,2.20
2023-03-31T13:25:45.293Z,2.72
2023-03-31T13:26:48.630Z,4.13
2023-03-31T13:27:50.853Z,2.67
2023-03-31T13:29:18.341Z,2.05
2023-03-31T13:30:46.280Z,1.25
2023-03-31T13:32:23.475Z,3.72
2023-03-31T13:33:41.294Z,3.47
2023-03-31T13:34:46.917Z,3.55
2023-03-31T13:35:53.990Z,2.38
2023-03-31T13:37:16.569Z,5.22
2023-03-31T13:38:30.416Z,2.90
2023-03-31T13:39:51.995Z,1.02
2023-03-31T13:41:10.117Z,1.88
2023-03-31T13:42:28.091Z,1.15
2023-03-31T13:43:49.475Z,1.65
2023-03-31T13:45:13.097Z,0.60
2023-03-31T13:46:52.226Z,1.80
2023-03-31T13:48:15.555Z,1.70
2023-03-31T13:49:42.246Z,1.30
2023-03-31T13:51:01.833Z,3.15
2023-03-31T13:52:06.170Z,1.73
2023-03-31T13:53:25.151Z,1.85
2023-03-31T13:55:02.748Z,0.90
2023-03-31T13:56:35.832Z,0.93
2023-03-31T13:58:33.338Z,3.35
2023-03-31T13:59:58.757Z,1.90
2023-03-31T14:01:22.836Z,3.53
2023-03-31T14:03:00.676Z,0.80
2023-03-31T14:04:16.771Z,9.10
2023-03-31T14:05:30.334Z,0.68
2023-03-31T14:06:37.410Z,2.20
2023-03-31T14:07:45.128Z,0.90
2023-03-31T14:08:53.274Z,1.20
2023-03-31T14:09:56.924Z,4.05
2023-03-31T14:11:18.313Z,1.48
2023-03-31T14:12:23.198Z,0.80
2023-03-31T14:13:26.762Z,0.90
2023-03-31T14:14:29.881Z,1.23
2023-03-31T14:15:33.334Z,0.68
2023-03-31T14:16:40.008Z,2.47
2023-03-31T14:17:43.835Z,1.55
2023-03-31T14:18:55.230Z,1.50
2023-03-31T14:20:30.069Z,3.80
2023-03-31T14:21:37.736Z,2.95
2023-03-31T14:22:51.810Z,1.25
2023-03-31T14:24:06.055Z,1.27
2023-03-31T14:25:16.269Z,4.00
2023-03-31T14:26:31.630Z,0.60
2023-03-31T14:27:51.018Z,2.20
2023-03-31T14:29:11.041Z,3.17
2023-03-31T14:30:23.313Z,1.38
2023-03-31T14:31:35.426Z,2.55
2023-03-31T14:32:46.017Z,1.10
2023-03-31T14:34:08.159Z,1.38
2023-03-31T14:35:29.905Z,1.02
2023-03-31T14:36:39.670Z,1.92
2023-03-31T14:37:41.740Z,2.45
2023-03-31T14:38:46.479Z,0.90
2023-03-31T14:39:53.048Z,1.08
2023-03-31T14:41:00.929Z,0.85
2023-03-31T14:42:06.222Z,3.78
2023-03-31T14:43:18.491Z,1.55
2023-03-31T14:44:21.569Z,1.55
2023-03-31T14:45:26.418Z,1.27
2023-03-31T14:46:32.949Z,2.83
2023-03-31T14:47:36.038Z,1.88
2023-03-31T14:48:45.164Z,0.60
2023-03-31T14:49:48.456Z,1.35
2023-03-31T14:50:51.827Z,2.47
2023-03-31T14:51:56.196Z,4.55
2023-03-31T14:52:58.214Z,2.90
2023-03-31T14:54:03.107Z,3.80